Time;durP1;ratioP1;P1;durP2;ratioP2;P2;SDS_P1;SDS_P2;PMS_P1;PMS_P2;Temp;Humidity;BMP_temperature;BMP_pressure;BME280_temperature;BME280_humidity;BME280_pressure;Samples;Min_cycle;Max_cycle;Signal;HPM_P1;HPM_P2
2022/07/09 00:02:20;;;;;;;5.03;4.17;;;;;;;13.59;73.65;98602.66;6232312;28;20598;-46
2022/07/09 00:05:22;;;;;;;6.53;3.77;;;;;;;13.57;74.16;98604.59;6231225;28;20286;-44
2022/07/09 00:08:24;;;;;;;6.90;3.10;;;;;;;13.54;73.92;98601.34;6231257;28;20270;-49
2022/07/09 00:11:26;;;;;;;5.20;3.23;;;;;;;13.52;74.07;98608.56;6231204;28;20228;-43
2022/07/09 00:14:29;;;;;;;2.97;2.50;;;;;;;13.47;74.23;98608.94;6231297;28;20235;-46
2022/07/09 00:17:31;;;;;;;5.97;2.47;;;;;;;13.53;74.40;98608.44;6231684;28;20358;-50
2022/07/09 00:20:33;;;;;;;4.33;2.10;;;;;;;13.67;73.57;98604.72;6231183;28;20342;-46
2022/07/09 00:23:35;;;;;;;5.40;3.27;;;;;;;13.72;73.73;98601.69;6231832;28;20717;-46
2022/07/09 00:26:37;;;;;;;2.63;2.43;;;;;;;13.63;74.35;98598.81;6230463;28;20322;-50
2022/07/09 00:29:40;;;;;;;5.20;3.03;;;;;;;13.56;74.34;98600.25;6230842;28;20737;-44
2022/07/09 00:32:42;;;;;;;5.63;3.73;;;;;;;13.53;74.57;98597.84;6230872;28;20322;-47
2022/07/09 00:35:44;;;;;;;7.03;4.33;;;;;;;13.54;74.88;98593.38;6231444;28;20681;-43
2022/07/09 00:38:46;;;;;;;5.80;3.80;;;;;;;13.50;75.07;98599.88;6230305;28;20654;-44
2022/07/09 00:41:48;;;;;;;6.60;2.70;;;;;;;13.51;74.79;98599.75;6231215;28;20602;-47
2022/07/09 00:44:50;;;;;;;6.03;3.33;;;;;;;13.57;74.58;98587.84;6230345;28;20342;-45
2022/07/09 00:47:52;;;;;;;4.73;2.60;;;;;;;13.60;74.15;98583.13;6230553;28;20836;-44
2022/07/09 00:50:54;;;;;;;5.40;3.30;;;;;;;13.61;74.96;98587.47;6230429;28;20266;-46
2022/07/09 00:53:58;;;;;;;9.00;2.17;;;;;;;13.60;75.03;98587.59;6229026;28;20344;-45
2022/07/09 00:57:03;;;;;;;2.33;1.93;;;;;;;13.61;74.69;98574.19;6230843;28;20600;-44
2022/07/09 01:00:07;;;;;;;5.10;1.97;;;;;;;13.59;74.62;98584.09;6229331;28;20235;-46
2022/07/09 01:03:09;;;;;;;3.80;2.00;;;;;;;13.53;74.92;98579.28;6227827;28;20280;-45
2022/07/09 01:06:12;;;;;;;2.83;1.50;;;;;;;13.49;75.14;98576.97;6212772;28;20597;-45
2022/07/09 01:09:14;;;;;;;3.50;1.60;;;;;;;13.42;74.66;98570.44;6230063;28;20291;-44
2022/07/09 01:12:16;;;;;;;3.50;1.93;;;;;;;13.34;74.67;98572.84;6230150;28;20583;-44
2022/07/09 01:15:18;;;;;;;2.60;1.93;;;;;;;13.24;74.89;98572.72;6212176;28;20666;-45
2022/07/09 01:18:20;;;;;;;3.73;1.47;;;;;;;13.13;75.50;98575.31;6229006;28;20309;-44
2022/07/09 01:21:22;;;;;;;2.53;1.73;;;;;;;13.04;75.39;98576.88;6230055;28;20739;-43
2022/07/09 01:24:26;;;;;;;3.83;1.60;;;;;;;12.96;76.05;98578.41;6229283;28;20232;-44
2022/07/09 01:27:28;;;;;;;3.40;1.50;;;;;;;12.85;76.54;98581.88;6213318;28;20326;-45
2022/07/09 01:30:32;;;;;;;2.70;1.40;;;;;;;12.78;76.36;98577.97;6228807;28;20297;-44
2022/07/09 01:33:34;;;;;;;5.10;1.83;;;;;;;12.76;76.73;98572.81;6230034;28;20239;-44
2022/07/09 01:36:36;;;;;;;3.10;1.47;;;;;;;12.69;76.58;98566.25;6227869;28;20238;-45
2022/07/09 01:39:49;;;;;;;1.83;1.50;;;;;;;12.60;77.05;98563.44;6229155;28;20228;-43
2022/07/09 01:42:52;;;;;;;2.77;1.50;;;;;;;12.51;77.26;98555.25;6229590;28;20228;-45
2022/07/09 01:45:54;;;;;;;2.80;1.70;;;;;;;12.42;77.86;98561.22;6229452;28;20247;-45
2022/07/09 01:48:56;;;;;;;5.07;1.70;;;;;;;12.32;78.33;98560.19;6230199;28;20707;-43
2022/07/09 01:51:58;;;;;;;2.97;1.93;;;;;;;12.24;78.99;98553.78;6229323;28;20239;-44
2022/07/09 01:55:00;;;;;;;3.73;1.70;;;;;;;12.15;79.36;98555.31;6228694;28;20247;-46
2022/07/09 01:58:02;;;;;;;3.10;2.00;;;;;;;12.08;79.96;98549.59;6229151;28;20236;-45
2022/07/09 02:01:05;;;;;;;4.43;1.90;;;;;;;12.02;79.69;98549.19;6229960;28;20235;-44
2022/07/09 02:04:07;;;;;;;4.70;2.00;;;;;;;11.97;80.10;98543.41;6228161;28;20242;-47
2022/07/09 02:07:09;;;;;;;2.97;1.47;;;;;;;11.94;80.24;98539.19;6229608;28;20223;-45
2022/07/09 02:10:11;;;;;;;3.50;1.60;;;;;;;11.93;80.15;98545.41;6228707;28;20725;-44
2022/07/09 02:13:13;;;;;;;2.30;1.53;;;;;;;11.90;80.19;98535.06;6203937;28;20330;-46
2022/07/09 02:16:15;;;;;;;2.70;1.60;;;;;;;11.87;80.89;98540.59;6225753;28;21144;-45
2022/07/09 02:19:17;;;;;;;2.13;1.67;;;;;;;11.91;80.96;98536.75;6227889;28;20612;-45
2022/07/09 02:22:19;;;;;;;3.37;2.00;;;;;;;11.95;81.23;98540.03;6229662;28;20638;-43
2022/07/09 02:25:21;;;;;;;3.00;1.60;;;;;;;11.97;81.20;98540.78;6229568;28;20243;-44
2022/07/09 02:28:23;;;;;;;4.30;1.90;;;;;;;12.02;80.86;98534.19;6228182;28;20259;-46
2022/07/09 02:31:26;;;;;;;3.43;1.93;;;;;;;12.05;81.45;98541.06;6228767;28;20293;-44
2022/07/09 02:34:28;;;;;;;2.40;1.83;;;;;;;12.04;81.42;98536.72;6228159;28;20715;-44
2022/07/09 02:37:30;;;;;;;2.07;1.80;;;;;;;12.10;81.54;98531.81;6229258;28;20549;-44
2022/07/09 02:40:32;;;;;;;3.63;2.13;;;;;;;12.16;81.67;98525.25;6228452;28;20239;-44
2022/07/09 02:43:35;;;;;;;4.13;1.57;;;;;;;12.24;81.43;98530.81;6228953;28;20703;-45
2022/07/09 02:46:37;;;;;;;3.97;2.00;;;;;;;12.31;81.73;98524.09;6227551;28;20235;-45
2022/07/09 02:49:39;;;;;;;2.60;1.93;;;;;;;12.36;81.83;98521.13;6229122;28;20714;-44
2022/07/09 02:52:41;;;;;;;3.67;1.53;;;;;;;12.47;81.67;98521.19;6228476;28;20234;-43
2022/07/09 02:55:43;;;;;;;6.47;1.70;;;;;;;12.55;81.52;98521.44;6227233;28;20232;-45
2022/07/09 02:58:45;;;;;;;3.03;2.00;;;;;;;12.59;81.25;98517.59;6227813;28;20273;-44
2022/07/09 03:01:47;;;;;;;1.93;1.83;;;;;;;12.67;81.09;98515.22;6228240;28;20231;-46
2022/07/09 03:04:50;;;;;;;4.47;2.20;;;;;;;12.72;81.33;98510.41;6202923;28;20711;-48
2022/07/09 03:07:52;;;;;;;3.60;2.17;;;;;;;12.79;81.21;98521.38;6224211;28;20706;-48
2022/07/09 03:10:54;;;;;;;3.10;1.90;;;;;;;12.85;81.28;98510.34;6228665;28;20235;-44
2022/07/09 03:13:56;;;;;;;1.83;1.70;;;;;;;12.88;80.94;98516.22;6227740;28;20337;-44
2022/07/09 03:16:58;;;;;;;4.23;1.80;;;;;;;12.95;80.98;98524.56;6229082;28;20243;-45
2022/07/09 03:20:01;;;;;;;3.87;1.70;;;;;;;13.00;80.55;98526.84;6232446;28;20250;-47
2022/07/09 03:23:06;;;;;;;1.63;1.53;;;;;;;13.03;80.78;98518.69;6232567;28;20612;-47
2022/07/09 03:26:08;;;;;;;3.63;2.17;;;;;;;13.11;80.64;98516.28;6233855;28;20715;-44
2022/07/09 03:29:10;;;;;;;2.80;2.03;;;;;;;13.21;79.71;98517.28;6233153;28;20242;-46
2022/07/09 03:32:12;;;;;;;1.97;1.77;;;;;;;13.33;78.29;98521.63;6232258;28;20238;-46
2022/07/09 03:35:14;;;;;;;3.00;1.70;;;;;;;13.45;77.66;98523.34;6231634;28;20651;-47
2022/07/09 03:38:16;;;;;;;3.07;1.50;;;;;;;13.58;76.47;98532.00;6231728;28;20228;-50
2022/07/09 03:41:18;;;;;;;2.57;1.83;;;;;;;13.71;75.63;98517.75;6231991;28;20231;-44
2022/07/09 03:44:20;;;;;;;2.80;1.50;;;;;;;13.80;75.29;98520.53;6231784;28;20228;-46
2022/07/09 03:47:23;;;;;;;1.77;1.40;;;;;;;13.81;75.30;98519.56;6231406;28;20739;-47
2022/07/09 03:50:25;;;;;;;3.53;1.80;;;;;;;13.83;74.74;98533.56;6231135;28;20586;-46
2022/07/09 03:53:27;;;;;;;2.10;1.20;;;;;;;13.90;74.51;98531.25;6231421;28;20227;-48
2022/07/09 03:56:29;;;;;;;1.93;1.60;;;;;;;14.00;73.37;98525.06;6231267;28;20231;-46
2022/07/09 03:59:31;;;;;;;3.83;1.57;;;;;;;14.12;72.35;98522.41;6231140;28;20612;-50
2022/07/09 04:02:33;;;;;;;2.70;1.53;;;;;;;14.17;72.66;98529.03;6214485;28;20782;-49
2022/07/09 04:05:35;;;;;;;2.60;1.33;;;;;;;14.18;73.29;98524.53;6231437;28;20236;-47
2022/07/09 04:08:37;;;;;;;2.33;1.37;;;;;;;14.19;73.62;98528.91;6230568;28;20310;-49
2022/07/09 04:11:39;;;;;;;2.57;1.43;;;;;;;14.20;72.64;98526.13;6230876;28;20703;-49
2022/07/09 04:14:41;;;;;;;1.50;1.23;;;;;;;14.32;71.31;98525.13;6231608;28;20230;-48
2022/07/09 04:17:43;;;;;;;2.93;1.30;;;;;;;14.42;70.48;98519.94;6230089;28;20235;-43
2022/07/09 04:20:45;;;;;;;2.10;1.30;;;;;;;14.54;69.25;98518.91;6231064;28;20639;-44
2022/07/09 04:23:48;;;;;;;4.73;1.43;;;;;;;14.55;69.57;98514.44;6230541;28;20724;-46
2022/07/09 04:26:50;;;;;;;3.43;1.60;;;;;;;14.54;69.65;98507.44;6230989;28;20264;-45
2022/07/09 04:29:52;;;;;;;2.57;1.50;;;;;;;14.50;68.87;98517.47;6230300;28;20573;-44
2022/07/09 04:32:54;;;;;;;1.93;1.30;;;;;;;14.46;69.28;98513.41;6230719;28;20316;-47
2022/07/09 04:35:57;;;;;;;2.33;1.47;;;;;;;14.42;69.38;98511.13;6213928;28;20224;-44
2022/07/09 04:38:59;;;;;;;4.30;1.70;;;;;;;14.33;70.05;98515.34;6230367;28;20607;-44
2022/07/09 04:42:01;;;;;;;5.93;1.90;;;;;;;14.26;69.98;98511.50;6230294;28;20362;-44
2022/07/09 04:45:03;;;;;;;4.50;1.43;;;;;;;14.30;68.31;98503.16;6229886;28;20230;-46
2022/07/09 04:48:05;;;;;;;3.03;1.57;;;;;;;14.36;68.78;98507.97;6230498;28;20227;-44
2022/07/09 04:51:07;;;;;;;3.17;1.53;;;;;;;14.33;69.24;98510.03;6230530;28;20269;-44
2022/07/09 04:54:09;;;;;;;3.63;1.57;;;;;;;14.32;69.31;98508.34;6229884;28;20215;-44
2022/07/09 04:57:12;;;;;;;1.83;1.10;;;;;;;14.35;68.73;98508.09;6230281;28;20596;-43
2022/07/09 05:00:15;;;;;;;4.43;1.40;;;;;;;14.38;68.77;98497.19;6229632;28;20235;-45
2022/07/09 05:03:17;;;;;;;4.07;1.40;;;;;;;14.44;68.35;98502.06;6228460;28;20335;-46
2022/07/09 05:06:20;;;;;;;3.90;1.60;;;;;;;14.50;67.94;98498.03;6213379;28;20636;-44
2022/07/09 05:09:22;;;;;;;2.67;1.50;;;;;;;14.61;67.38;98496.19;6229705;28;20348;-44
2022/07/09 05:12:24;;;;;;;2.77;1.30;;;;;;;14.69;67.26;98499.03;6229928;28;20749;-44
2022/07/09 05:15:27;;;;;;;2.03;1.20;;;;;;;14.73;66.92;98495.16;6230185;28;20310;-43
2022/07/09 05:18:30;;;;;;;2.77;1.47;;;;;;;14.80;66.51;98508.75;6229382;28;20734;-45
2022/07/09 05:21:33;;;;;;;4.50;1.37;;;;;;;14.84;66.70;98509.34;6229436;28;20747;-44
2022/07/09 05:24:35;;;;;;;4.00;1.70;;;;;;;14.89;66.03;98504.47;6229658;28;20234;-44
2022/07/09 05:27:41;;;;;;;2.00;1.37;;;;;;;14.94;66.09;98507.59;6229150;28;20777;-45
2022/07/09 05:30:43;;;;;;;6.23;1.80;;;;;;;15.00;66.08;98512.38;6229492;28;20281;-44
2022/07/09 05:33:47;;;;;;;1.90;1.40;;;;;;;15.04;65.97;98512.00;6228902;28;20292;-46
2022/07/09 05:36:58;;;;;;;3.20;1.73;;;;;;;15.09;65.90;98507.13;6228101;28;20246;-44
2022/07/09 05:40:05;;;;;;;4.53;1.73;;;;;;;15.14;65.58;98504.09;6228222;28;20268;-46
2022/07/09 05:43:07;;;;;;;3.07;1.80;;;;;;;15.20;65.25;98511.53;6229151;28;20579;-44
2022/07/09 05:46:09;;;;;;;2.60;1.60;;;;;;;15.28;65.12;98497.56;6228960;28;20235;-44
2022/07/09 05:49:11;;;;;;;4.27;1.50;;;;;;;15.35;64.75;98507.56;6210573;28;20231;-44
2022/07/09 05:52:13;;;;;;;2.10;1.43;;;;;;;15.35;65.14;98512.03;6228774;28;20802;-44
2022/07/09 05:55:15;;;;;;;3.23;1.60;;;;;;;15.37;64.71;98502.13;6228802;28;20313;-46
2022/07/09 05:58:17;;;;;;;2.50;1.53;;;;;;;15.46;64.53;98502.16;6227865;28;20307;-48
2022/07/09 06:01:19;;;;;;;5.23;1.73;;;;;;;15.55;64.85;98508.53;6228669;28;20259;-43
2022/07/09 06:04:27;;;;;;;3.90;1.70;;;;;;;15.55;64.71;98510.34;6226946;28;20243;-45
2022/07/09 06:07:29;;;;;;;5.47;1.43;;;;;;;15.55;64.29;98513.00;6228250;28;20317;-45
2022/07/09 06:10:32;;;;;;;3.10;1.60;;;;;;;15.54;64.56;98503.28;6228011;28;20232;-46
2022/07/09 06:13:34;;;;;;;3.97;1.60;;;;;;;15.48;64.73;98492.19;6229312;28;20259;-46
2022/07/09 06:16:36;;;;;;;4.43;1.90;;;;;;;15.47;64.31;98490.50;6230470;28;20246;-46
2022/07/09 06:19:38;;;;;;;2.93;1.73;;;;;;;15.54;64.75;98500.63;6230364;28;20330;-45
2022/07/09 06:22:40;;;;;;;3.27;1.47;;;;;;;15.62;64.15;98500.84;6231773;28;20321;-45
2022/07/09 06:25:42;;;;;;;4.63;1.40;;;;;;;15.73;63.91;98495.41;6229436;28;20235;-43
2022/07/09 06:28:44;;;;;;;3.33;1.50;;;;;;;15.88;63.68;98488.72;6228416;28;20273;-44
2022/07/09 06:31:47;;;;;;;4.00;1.40;;;;;;;16.02;63.22;98487.50;6212234;28;20255;-46
2022/07/09 06:34:49;;;;;;;3.07;2.00;;;;;;;16.21;62.80;98482.19;6227527;28;20236;-46
2022/07/09 06:37:51;;;;;;;1.40;1.30;;;;;;;16.38;62.10;98493.97;6228238;28;20227;-46
2022/07/09 06:40:54;;;;;;;4.30;1.47;;;;;;;16.53;61.65;98487.25;6228088;28;20269;-44
2022/07/09 06:43:56;;;;;;;2.97;1.50;;;;;;;16.70;61.34;98497.22;6227920;28;20285;-44
2022/07/09 06:46:58;;;;;;;2.97;1.60;;;;;;;16.86;60.62;98483.34;6211084;28;20231;-47
2022/07/09 06:50:00;;;;;;;5.40;1.60;;;;;;;17.10;60.41;98481.03;6228039;28;20788;-46
2022/07/09 06:53:02;;;;;;;4.53;1.40;;;;;;;17.29;59.88;98490.78;6212891;28;20227;-49
2022/07/09 06:56:04;;;;;;;5.53;1.57;;;;;;;17.55;59.13;98486.50;6232850;28;20603;-48
2022/07/09 06:59:06;;;;;;;4.03;1.40;;;;;;;17.86;58.58;98488.91;6232433;28;20604;-48
2022/07/09 07:02:09;;;;;;;1.60;1.40;;;;;;;17.91;57.61;98492.81;6233185;28;20318;-46
2022/07/09 07:05:11;;;;;;;3.40;1.30;;;;;;;18.04;56.92;98492.47;6232345;28;20239;-46
2022/07/09 07:08:19;;;;;;;3.10;1.30;;;;;;;18.16;56.35;98493.94;6231482;28;20236;-44
2022/07/09 07:11:21;;;;;;;3.70;1.77;;;;;;;18.39;55.61;98483.63;6232812;28;20386;-46
2022/07/09 07:14:24;;;;;;;4.23;1.40;;;;;;;18.58;54.96;98490.66;6232055;28;20895;-46
2022/07/09 07:17:26;;;;;;;2.93;1.13;;;;;;;18.88;54.42;98494.75;6232367;28;20238;-48
2022/07/09 07:20:28;;;;;;;5.80;1.50;;;;;;;19.09;53.73;98480.03;6231936;28;20235;-46
2022/07/09 07:23:31;;;;;;;2.10;1.30;;;;;;;19.34;53.39;98480.22;6232844;28;20389;-45
2022/07/09 07:26:35;;;;;;;3.80;1.50;;;;;;;19.37;52.50;98491.41;6233823;28;20239;-45
2022/07/09 07:29:36;;;;;;;2.87;1.50;;;;;;;19.63;51.40;98487.91;6230945;28;20270;-47
2022/07/09 07:32:39;;;;;;;3.37;1.40;;;;;;;19.95;51.51;98476.50;6231917;28;20231;-45
2022/07/09 07:35:41;;;;;;;5.80;1.87;;;;;;;20.32;50.76;98489.47;6231923;28;20326;-46
2022/07/09 07:38:44;;;;;;;1.97;1.33;;;;;;;20.65;50.04;98485.88;6231718;28;20227;-50
2022/07/09 07:41:46;;;;;;;4.50;1.83;;;;;;;20.84;49.46;98488.22;6231672;28;20260;-50
2022/07/09 07:44:56;;;;;;;3.13;1.47;;;;;;;21.01;49.14;98486.34;6231033;28;20255;-45
2022/07/09 07:47:59;;;;;;;7.33;1.93;;;;;;;21.07;49.46;98491.03;6232080;28;20616;-47
2022/07/09 07:51:03;;;;;;;4.77;1.53;;;;;;;21.14;49.39;98486.69;6231317;28;20684;-47
2022/07/09 07:54:05;;;;;;;3.27;1.43;;;;;;;21.50;47.98;98480.91;6232255;28;20735;-47
2022/07/09 07:57:07;;;;;;;2.90;1.10;;;;;;;21.66;47.59;98470.94;6230917;28;20235;-51
2022/07/09 08:00:10;;;;;;;7.43;1.80;;;;;;;21.44;47.00;98473.56;6231088;28;20248;-50
2022/07/09 08:03:16;;;;;;;1.63;1.13;;;;;;;21.28;48.23;98472.56;6230608;28;20779;-49
2022/07/09 08:06:19;;;;;;;1.97;1.03;;;;;;;21.23;48.38;98468.75;6231449;28;20235;-50
2022/07/09 08:12:58;;;;;;;2.20;1.60;;;;;;;22.01;47.32;98474.19;3330599;22;20242;-71
2022/07/09 08:16:02;;;;;;;3.80;1.20;;;;;;;22.40;46.71;98457.97;6237478;28;20312;-70
2022/07/09 08:19:04;;;;;;;2.20;1.10;;;;;;;22.50;46.40;98461.28;6255050;28;20238;-72
2022/07/09 08:22:06;;;;;;;3.60;1.40;;;;;;;21.73;47.76;98461.19;6253783;28;20710;-72
2022/07/09 08:25:08;;;;;;;4.77;1.80;;;;;;;21.14;49.24;98451.78;6254786;28;20314;-70
2022/07/09 08:28:16;;;;;;;4.77;1.60;;;;;;;21.80;48.59;98461.31;6254364;28;20235;-69
2022/07/09 08:31:19;;;;;;;3.67;1.80;;;;;;;22.03;47.70;98453.34;6237662;28;20824;-71
2022/07/09 08:34:22;;;;;;;3.07;1.87;;;;;;;22.75;46.99;98459.28;6255386;28;20261;-70
2022/07/09 08:37:24;;;;;;;2.27;1.10;;;;;;;22.82;45.72;98449.44;6254731;28;20227;-70
2022/07/09 08:40:26;;;;;;;2.90;1.70;;;;;;;22.68;46.17;98452.88;6237696;28;20296;-70
2022/07/09 08:43:32;;;;;;;2.00;1.33;;;;;;;22.65;46.07;98454.09;6254658;28;20227;-70
2022/07/09 08:46:34;;;;;;;2.80;1.50;;;;;;;23.01;45.37;98440.00;6255208;28;20384;-70
2022/07/09 08:49:45;;;;;;;3.47;1.40;;;;;;;23.35;44.02;98436.81;6254469;28;20231;-69
2022/07/09 08:52:51;;;;;;;3.47;1.47;;;;;;;23.82;43.27;98433.72;6254869;28;20726;-69
2022/07/09 08:55:54;;;;;;;2.70;1.63;;;;;;;24.19;43.11;98438.94;6254219;28;20805;-70
2022/07/09 08:58:56;;;;;;;3.23;1.43;;;;;;;23.03;43.92;98446.06;6212409;28;20615;-70
2022/07/09 09:02:09;;;;;;;2.27;1.60;;;;;;;22.24;44.65;98445.50;6241180;28;20235;-69
2022/07/09 09:05:15;;;;;;;1.73;1.47;;;;;;;22.76;44.47;98437.53;6236686;28;20626;-70
2022/07/09 09:08:21;;;;;;;3.77;1.87;;;;;;;23.41;43.68;98431.50;6253577;28;20238;-69
2022/07/09 09:11:25;;;;;;;2.10;1.90;;;;;;;24.26;41.44;98410.19;6253029;28;20364;-71
2022/07/09 09:14:29;;;;;;;1.90;1.73;;;;;;;25.06;40.61;98416.28;6253213;28;20606;-70
2022/07/09 09:17:45;;;;;;;1.83;1.73;;;;;;;25.10;39.23;98425.69;6237584;28;20231;-69
2022/07/09 09:20:47;;;;;;;4.23;1.77;;;;;;;24.50;41.03;98410.84;6235927;28;20239;-70
2022/07/09 09:23:54;;;;;;;3.23;1.60;;;;;;;23.86;42.95;98413.44;6252946;28;20304;-71
2022/07/09 09:26:58;;;;;;;2.03;1.50;;;;;;;24.17;42.15;98411.31;6253439;28;20231;-70
2022/07/09 09:30:00;;;;;;;3.23;1.90;;;;;;;24.83;41.68;98411.97;6253580;28;20231;-70
2022/07/09 09:33:03;;;;;;;4.07;2.10;;;;;;;25.17;40.26;98421.16;6252359;28;20229;-70
2022/07/09 09:36:06;;;;;;;2.87;1.70;;;;;;;23.95;41.50;98406.94;6253428;28;20733;-70
2022/07/09 09:39:09;;;;;;;2.33;1.47;;;;;;;24.19;41.10;98409.25;6253806;28;20215;-70
2022/07/09 09:42:14;;;;;;;1.50;1.40;;;;;;;24.40;40.55;98392.28;6253533;28;20598;-70
2022/07/09 09:45:16;;;;;;;3.20;1.70;;;;;;;24.77;40.10;98384.88;6253158;28;20218;-70
2022/07/09 09:48:19;;;;;;;1.45;1.35;;;;;;;25.56;39.03;98374.59;6240968;28;20206;-70
2022/07/09 09:51:22;;;;;;;2.42;1.48;;;;;;;25.69;37.98;98380.09;6257662;28;20234;-70
2022/07/09 09:54:24;;;;;;;1.40;1.30;;;;;;;24.79;40.45;98378.28;6253369;28;20355;-70
2022/07/09 09:57:27;;;;;;;2.25;1.30;;;;;;;24.83;40.62;98378.72;6235206;28;20257;-70
2022/07/09 10:00:29;;;;;;;1.67;1.25;;;;;;;25.25;39.25;98364.28;6252671;28;20227;-69
2022/07/09 10:03:32;;;;;;;1.23;1.10;;;;;;;25.87;38.10;98355.19;6252506;28;20214;-70
2022/07/09 10:06:42;;;;;;;1.55;1.00;;;;;;;26.32;36.23;98349.06;6234992;28;20600;-70
2022/07/09 10:09:53;;;;;;;3.10;0.98;;;;;;;26.95;36.09;98351.38;6251166;28;20215;-70
2022/07/09 10:12:55;;;;;;;2.60;0.90;;;;;;;27.10;34.98;98349.25;6235507;28;20699;-69
2022/07/09 10:15:59;;;;;;;2.13;0.95;;;;;;;26.01;35.82;98351.50;6252581;28;20328;-71
2022/07/09 10:19:01;;;;;;;1.50;1.00;;;;;;;25.36;37.72;98363.69;6235070;28;20234;-70
2022/07/09 10:22:04;;;;;;;1.98;1.00;;;;;;;26.01;37.34;98333.38;6253104;28;20602;-71
2022/07/09 10:25:08;;;;;;;1.38;0.88;;;;;;;26.10;36.85;98358.38;6252983;28;20243;-70
2022/07/09 10:28:17;;;;;;;1.40;1.10;;;;;;;25.70;36.14;98352.84;6235278;28;20231;-70
2022/07/09 10:31:20;;;;;;;1.17;0.98;;;;;;;25.53;36.35;98331.75;6235899;28;20365;-71
2022/07/09 10:34:47;;;;;;;2.20;1.10;;;;;;;26.03;35.30;98333.19;6252143;28;20243;-70
2022/07/09 10:37:53;;;;;;;1.67;0.95;;;;;;;26.38;35.53;98334.69;6251585;28;20304;-69
2022/07/09 10:40:59;;;;;;;1.15;0.90;;;;;;;26.18;36.35;98331.09;6242568;28;20495;-70
2022/07/09 10:44:01;;;;;;;1.65;1.00;;;;;;;25.87;34.72;98328.13;6234481;28;20370;-68
2022/07/09 10:47:04;;;;;;;1.35;0.68;;;;;;;26.43;35.27;98324.09;6251649;28;20330;-69
2022/07/09 10:50:07;;;;;;;1.88;0.75;;;;;;;26.86;33.81;98312.78;6234728;28;20596;-68
2022/07/09 10:53:11;;;;;;;1.52;1.00;;;;;;;27.55;34.47;98325.78;6219037;28;20325;-70
2022/07/09 10:56:21;;;;;;;1.40;0.98;;;;;;;27.71;32.78;98322.56;6235017;28;20249;-70
2022/07/09 10:59:24;;;;;;;2.72;1.00;;;;;;;27.64;33.09;98308.22;6234749;28;20595;-70
2022/07/09 12:02:02;;;;;;;1.20;0.80;;;;;;;27.61;33.64;98256.28;2963278;28;22311;-69
2022/07/09 12:05:07;;;;;;;1.95;1.20;;;;;;;27.92;32.24;98240.00;6255372;28;20229;-69
2022/07/09 12:08:09;;;;;;;3.03;1.00;;;;;;;27.39;34.18;98237.59;6255306;28;20231;-70
2022/07/09 12:11:11;;;;;;;2.15;0.90;;;;;;;26.78;35.28;98239.88;6254500;28;20253;-71
2022/07/09 12:14:13;;;;;;;1.85;1.10;;;;;;;26.82;34.67;98241.13;6237563;28;20717;-70
2022/07/09 12:17:33;;;;;;;1.63;1.00;;;;;;;28.03;32.62;98223.00;6255290;28;20704;-70
2022/07/09 12:20:35;;;;;;;2.05;1.00;;;;;;;29.25;31.80;98221.34;6254907;28;20233;-69
2022/07/09 12:23:37;;;;;;;4.53;1.17;;;;;;;29.73;31.85;98218.63;6238423;28;20764;-70
2022/07/09 12:26:40;;;;;;;1.35;1.00;;;;;;;30.03;30.45;98211.28;6255713;28;20330;-71
2022/07/09 12:30:03;;;;;;;1.90;1.00;;;;;;;29.60;29.98;98200.59;6223992;28;20318;-70
2022/07/09 12:33:06;;;;;;;1.20;0.95;;;;;;;28.53;31.93;98204.00;6237372;28;20226;-70
2022/07/09 12:36:08;;;;;;;0.95;0.85;;;;;;;28.18;33.44;98203.69;6252883;28;20715;-71
2022/07/09 12:39:11;;;;;;;2.72;0.88;;;;;;;28.74;32.20;98208.16;6254866;28;20587;-71
2022/07/09 12:42:14;;;;;;;1.10;0.90;;;;;;;28.84;32.02;98208.50;6255089;28;20246;-69
2022/07/09 12:45:16;;;;;;;1.98;1.30;;;;;;;28.57;32.72;98197.88;6253815;28;20220;-70
2022/07/09 12:48:18;;;;;;;1.40;1.02;;;;;;;29.29;32.84;98192.66;6254292;28;20208;-70
2022/07/09 12:51:20;;;;;;;1.55;1.23;;;;;;;29.41;31.53;98181.84;6237688;28;20303;-69
2022/07/09 12:54:23;;;;;;;1.70;1.10;;;;;;;30.04;29.77;98166.66;6252229;28;20634;-70
2022/07/09 12:57:25;;;;;;;1.20;0.80;;;;;;;30.09;29.60;98174.91;6252233;28;20235;-70
2022/07/09 13:00:27;;;;;;;1.50;1.08;;;;;;;29.33;29.35;98170.22;6253099;28;20238;-69
2022/07/09 13:03:30;;;;;;;2.45;1.17;;;;;;;29.60;29.57;98164.41;6132589;28;20604;-70
2022/07/09 13:06:53;;;;;;;1.33;1.00;;;;;;;30.30;29.85;98168.06;6229815;28;20817;-70
2022/07/09 13:09:56;;;;;;;1.17;1.00;;;;;;;29.46;30.87;98169.19;6229900;28;20216;-71
2022/07/09 13:12:59;;;;;;;1.63;0.98;;;;;;;28.59;32.85;98167.78;6228161;28;20235;-70
2022/07/09 13:16:01;;;;;;;3.35;1.08;;;;;;;27.97;33.58;98168.78;6230147;28;20231;-69
2022/07/09 13:19:04;;;;;;;2.15;1.17;;;;;;;28.46;33.87;98162.47;6230578;28;20318;-70
2022/07/09 13:22:09;;;;;;;1.80;1.13;;;;;;;28.78;33.28;98157.75;6230825;28;20240;-70
2022/07/09 13:25:12;;;;;;;1.75;1.15;;;;;;;28.38;34.57;98168.22;6229769;28;20246;-70
2022/07/09 13:28:14;;;;;;;3.75;1.20;;;;;;;27.86;34.50;98151.34;6227633;28;20703;-70
2022/07/09 13:31:16;;;;;;;1.92;1.30;;;;;;;27.58;34.75;98148.22;6228564;28;20266;-70
2022/07/09 13:34:18;;;;;;;1.60;1.00;;;;;;;28.33;34.23;98144.47;6227812;28;20786;-69
2022/07/09 13:37:20;;;;;;;1.23;0.98;;;;;;;28.94;33.03;98128.09;6229250;28;20231;-70
2022/07/09 13:40:22;;;;;;;1.23;0.80;;;;;;;28.29;33.58;98135.09;6230205;28;20588;-70
2022/07/09 13:43:26;;;;;;;2.17;1.30;;;;;;;27.31;34.19;98147.56;6228068;28;20235;-69
2022/07/09 13:46:37;;;;;;;1.92;1.27;;;;;;;27.24;34.72;98133.22;6212238;28;20742;-70
2022/07/09 13:49:40;;;;;;;1.67;1.23;;;;;;;27.29;35.53;98122.53;6227391;28;20322;-70
2022/07/09 13:52:42;;;;;;;2.20;1.20;;;;;;;26.83;35.96;98115.50;6227727;28;20223;-69
2022/07/09 13:55:44;;;;;;;1.70;0.90;;;;;;;26.37;37.19;98124.59;6229016;28;20365;-69
2022/07/09 13:58:47;;;;;;;1.80;1.17;;;;;;;25.79;39.09;98126.34;6220160;28;20382;-70
2022/07/09 14:02:08;;;;;;;1.13;0.90;;;;;;;25.58;38.71;98119.25;6213301;28;20236;-70
2022/07/09 14:05:11;;;;;;;1.88;0.95;;;;;;;25.48;39.72;98118.81;6228768;28;20673;-70
2022/07/09 14:08:13;;;;;;;1.48;0.93;;;;;;;25.19;40.63;98122.75;6228398;28;20220;-70
2022/07/09 14:11:21;;;;;;;2.25;1.00;;;;;;;24.63;41.47;98136.47;6228576;28;20613;-71
2022/07/09 14:14:23;;;;;;;2.03;1.45;;;;;;;24.31;41.61;98123.63;6229399;28;20371;-70
2022/07/09 14:17:26;;;;;;;1.13;0.90;;;;;;;24.31;41.42;98129.03;6227334;28;20590;-70
2022/07/09 14:20:28;;;;;;;1.25;0.90;;;;;;;24.32;42.10;98119.91;6228301;28;20242;-70
2022/07/09 14:23:30;;;;;;;1.00;0.90;;;;;;;24.05;41.44;98129.69;6227145;28;20232;-70
2022/07/09 14:26:32;;;;;;;1.83;0.90;;;;;;;23.68;41.71;98146.19;6228329;28;20695;-69
2022/07/09 14:29:34;;;;;;;2.03;0.90;;;;;;;23.48;41.94;98137.88;6229280;28;20275;-70
2022/07/09 14:32:37;;;;;;;1.80;0.98;;;;;;;23.17;41.15;98125.56;6229010;28;20809;-69
2022/07/09 14:35:39;;;;;;;2.07;1.13;;;;;;;23.28;41.74;98135.00;6227852;28;20216;-70
2022/07/09 14:38:41;;;;;;;1.10;0.95;;;;;;;23.49;41.56;98128.78;6227973;28;20273;-70
2022/07/09 14:41:44;;;;;;;0.87;0.70;;;;;;;23.78;41.54;98130.50;6228478;28;20244;-69
2022/07/09 14:44:46;;;;;;;0.70;0.70;;;;;;;23.84;41.11;98127.03;6218067;28;20537;-70
2022/07/09 14:47:47;;;;;;;1.90;0.88;;;;;;;24.00;41.25;98129.44;6222578;28;20260;-71
2022/07/09 14:50:51;;;;;;;0.95;0.75;;;;;;;24.27;41.33;98135.84;6228895;28;20314;-69
2022/07/09 14:53:53;;;;;;;0.88;0.60;;;;;;;24.59;41.50;98137.06;6227651;28;20235;-70
2022/07/09 14:56:55;;;;;;;1.00;0.80;;;;;;;24.75;41.64;98130.50;6227985;28;20246;-70
2022/07/09 14:59:57;;;;;;;1.13;0.80;;;;;;;24.47;41.04;98119.75;6226645;28;20242;-70
2022/07/09 15:02:59;;;;;;;2.15;0.85;;;;;;;23.83;41.45;98120.81;6226507;28;20227;-71
2022/07/09 15:06:01;;;;;;;1.00;0.73;;;;;;;23.94;41.97;98114.06;6227508;28;20228;-70
2022/07/09 15:09:03;;;;;;;1.73;0.90;;;;;;;24.25;41.43;98114.47;6228031;28;20676;-70
2022/07/09 15:12:05;;;;;;;1.98;1.17;;;;;;;26.25;37.89;98101.09;6226880;28;20220;-70
2022/07/09 15:15:08;;;;;;;0.77;0.73;;;;;;;31.12;30.50;98097.88;6231574;28;20230;-69
2022/07/09 15:18:10;;;;;;;2.05;0.80;;;;;;;33.52;26.36;98084.63;6230964;28;20698;-70
2022/07/09 15:21:12;;;;;;;1.50;0.85;;;;;;;35.92;22.62;98087.31;6247254;28;20235;-69
2022/07/09 15:24:14;;;;;;;0.90;0.80;;;;;;;188.01;100.00;60274.75;6232533;28;20227;-69
2022/07/09 15:27:16;;;;;;;1.35;0.93;;;;;;;-144.22;100.00;60274.75;6222583;28;20300;-70